sensor_id;sensor_type;location;lat;lon;timestamp;P1;durP1;ratioP1;P2;durP2;ratioP2
15708;SDS011;7954;51.914;8.420;2023-04-06T00:01:39;3.23;;;2.93;;
15708;SDS011;7954;51.914;8.420;2023-04-06T00:04:13;3.67;;;3.13;;
15708;SDS011;7954;51.914;8.420;2023-04-06T00:06:40;5.60;;;3.17;;
15708;SDS011;7954;51.914;8.420;2023-04-06T00:09:08;3.40;;;3.10;;
15708;SDS011;7954;51.914;8.420;2023-04-06T00:11:36;3.47;;;3.17;;
15708;SDS011;7954;51.914;8.420;2023-04-06T00:14:04;3.80;;;3.37;;
15708;SDS011;7954;51.914;8.420;2023-04-06T00:16:34;3.37;;;3.07;;
15708;SDS011;7954;51.914;8.420;2023-04-06T00:19:02;3.40;;;3.10;;
15708;SDS011;7954;51.914;8.420;2023-04-06T00:21:30;3.13;;;2.83;;
15708;SDS011;7954;51.914;8.420;2023-04-06T00:23:59;4.27;;;3.33;;
15708;SDS011;7954;51.914;8.420;2023-04-06T00:26:26;3.60;;;3.30;;
15708;SDS011;7954;51.914;8.420;2023-04-06T00:28:54;4.90;;;3.27;;
15708;SDS011;7954;51.914;8.420;2023-04-06T00:31:22;3.77;;;3.47;;
15708;SDS011;7954;51.914;8.420;2023-04-06T00:33:52;3.43;;;3.13;;
15708;SDS011;7954;51.914;8.420;2023-04-06T00:36:21;3.83;;;3.30;;
15708;SDS011;7954;51.914;8.420;2023-04-06T00:38:49;3.60;;;3.03;;
15708;SDS011;7954;51.914;8.420;2023-04-06T00:41:17;3.43;;;3.13;;
15708;SDS011;7954;51.914;8.420;2023-04-06T00:43:45;3.10;;;2.90;;
15708;SDS011;7954;51.914;8.420;2023-04-06T00:46:13;3.50;;;3.20;;
15708;SDS011;7954;51.914;8.420;2023-04-06T00:48:41;3.63;;;3.30;;
15708;SDS011;7954;51.914;8.420;2023-04-06T00:51:10;4.07;;;3.53;;
15708;SDS011;7954;51.914;8.420;2023-04-06T00:53:38;3.20;;;2.90;;
15708;SDS011;7954;51.914;8.420;2023-04-06T00:56:07;3.63;;;3.33;;
15708;SDS011;7954;51.914;8.420;2023-04-06T00:58:36;4.27;;;3.43;;
15708;SDS011;7954;51.914;8.420;2023-04-06T01:01:04;3.53;;;3.23;;
15708;SDS011;7954;51.914;8.420;2023-04-06T01:03:32;3.60;;;3.30;;
15708;SDS011;7954;51.914;8.420;2023-04-06T01:06:00;4.93;;;3.57;;
15708;SDS011;7954;51.914;8.420;2023-04-06T01:10:59;3.70;;;3.40;;
15708;SDS011;7954;51.914;8.420;2023-04-06T01:13:28;5.17;;;3.53;;
15708;SDS011;7954;51.914;8.420;2023-04-06T01:15:55;3.70;;;3.40;;
15708;SDS011;7954;51.914;8.420;2023-04-06T01:18:25;3.57;;;3.17;;
15708;SDS011;7954;51.914;8.420;2023-04-06T01:20:55;3.90;;;3.60;;
15708;SDS011;7954;51.914;8.420;2023-04-06T01:23:24;3.70;;;3.40;;
15708;SDS011;7954;51.914;8.420;2023-04-06T01:25:53;3.70;;;3.37;;
15708;SDS011;7954;51.914;8.420;2023-04-06T01:28:21;3.87;;;3.40;;
15708;SDS011;7954;51.914;8.420;2023-04-06T01:30:50;4.20;;;3.30;;
15708;SDS011;7954;51.914;8.420;2023-04-06T01:33:17;3.80;;;3.40;;
15708;SDS011;7954;51.914;8.420;2023-04-06T01:35:45;4.53;;;3.77;;
15708;SDS011;7954;51.914;8.420;2023-04-06T01:38:13;4.70;;;3.60;;
15708;SDS011;7954;51.914;8.420;2023-04-06T01:40:43;4.63;;;3.93;;
15708;SDS011;7954;51.914;8.420;2023-04-06T01:43:11;6.83;;;3.70;;
15708;SDS011;7954;51.914;8.420;2023-04-06T01:47:58;4.30;;;3.33;;
15708;SDS011;7954;51.914;8.420;2023-04-06T01:50:26;3.87;;;3.47;;
15708;SDS011;7954;51.914;8.420;2023-04-06T01:52:54;4.30;;;3.90;;
15708;SDS011;7954;51.914;8.420;2023-04-06T01:55:22;4.40;;;3.60;;
15708;SDS011;7954;51.914;8.420;2023-04-06T01:59:08;4.73;;;4.20;;
15708;SDS011;7954;51.914;8.420;2023-04-06T02:01:36;4.40;;;4.00;;
15708;SDS011;7954;51.914;8.420;2023-04-06T02:04:03;4.40;;;4.00;;
15708;SDS011;7954;51.914;8.420;2023-04-06T02:06:31;5.00;;;3.50;;
15708;SDS011;7954;51.914;8.420;2023-04-06T02:11:08;5.27;;;4.77;;
15708;SDS011;7954;51.914;8.420;2023-04-06T02:13:36;4.03;;;3.63;;
15708;SDS011;7954;51.914;8.420;2023-04-06T02:16:04;3.97;;;3.60;;
15708;SDS011;7954;51.914;8.420;2023-04-06T02:18:33;4.67;;;3.90;;
15708;SDS011;7954;51.914;8.420;2023-04-06T02:21:01;4.57;;;3.87;;
15708;SDS011;7954;51.914;8.420;2023-04-06T02:23:29;4.03;;;3.70;;
15708;SDS011;7954;51.914;8.420;2023-04-06T02:25:57;5.03;;;4.13;;
15708;SDS011;7954;51.914;8.420;2023-04-06T02:28:26;5.27;;;4.03;;
15708;SDS011;7954;51.914;8.420;2023-04-06T02:30:54;5.90;;;4.03;;
15708;SDS011;7954;51.914;8.420;2023-04-06T02:33:22;4.00;;;3.60;;
15708;SDS011;7954;51.914;8.420;2023-04-06T02:35:49;4.87;;;3.87;;
15708;SDS011;7954;51.914;8.420;2023-04-06T02:39:09;3.93;;;3.53;;
15708;SDS011;7954;51.914;8.420;2023-04-06T02:41:37;5.93;;;4.30;;
15708;SDS011;7954;51.914;8.420;2023-04-06T02:44:06;5.30;;;4.00;;
15708;SDS011;7954;51.914;8.420;2023-04-06T02:46:35;4.47;;;3.73;;
15708;SDS011;7954;51.914;8.420;2023-04-06T02:49:03;4.40;;;4.00;;
15708;SDS011;7954;51.914;8.420;2023-04-06T02:51:32;4.27;;;3.87;;
15708;SDS011;7954;51.914;8.420;2023-04-06T02:54:01;4.43;;;4.03;;
15708;SDS011;7954;51.914;8.420;2023-04-06T02:56:30;5.40;;;3.87;;
15708;SDS011;7954;51.914;8.420;2023-04-06T02:58:58;4.93;;;4.00;;
15708;SDS011;7954;51.914;8.420;2023-04-06T03:01:27;5.57;;;4.30;;
15708;SDS011;7954;51.914;8.420;2023-04-06T03:03:55;4.70;;;4.20;;
15708;SDS011;7954;51.914;8.420;2023-04-06T03:06:22;4.80;;;4.37;;
15708;SDS011;7954;51.914;8.420;2023-04-06T03:08:51;4.53;;;4.13;;
15708;SDS011;7954;51.914;8.420;2023-04-06T03:11:19;4.73;;;4.23;;
15708;SDS011;7954;51.914;8.420;2023-04-06T03:13:49;5.13;;;4.37;;
15708;SDS011;7954;51.914;8.420;2023-04-06T03:16:17;4.23;;;3.90;;
15708;SDS011;7954;51.914;8.420;2023-04-06T03:19:13;5.73;;;4.40;;
15708;SDS011;7954;51.914;8.420;2023-04-06T03:21:41;5.03;;;4.23;;
15708;SDS011;7954;51.914;8.420;2023-04-06T03:24:09;4.50;;;3.90;;
15708;SDS011;7954;51.914;8.420;2023-04-06T03:26:37;5.13;;;4.63;;
15708;SDS011;7954;51.914;8.420;2023-04-06T03:29:05;5.03;;;4.20;;
15708;SDS011;7954;51.914;8.420;2023-04-06T03:31:33;4.90;;;4.40;;
15708;SDS011;7954;51.914;8.420;2023-04-06T03:34:01;4.20;;;3.80;;
15708;SDS011;7954;51.914;8.420;2023-04-06T03:36:30;4.90;;;4.17;;
15708;SDS011;7954;51.914;8.420;2023-04-06T03:38:58;5.67;;;3.87;;
15708;SDS011;7954;51.914;8.420;2023-04-06T03:41:26;4.67;;;4.03;;
15708;SDS011;7954;51.914;8.420;2023-04-06T03:43:54;5.43;;;4.30;;
15708;SDS011;7954;51.914;8.420;2023-04-06T03:46:23;5.07;;;4.57;;
15708;SDS011;7954;51.914;8.420;2023-04-06T03:49:10;5.20;;;4.80;;
15708;SDS011;7954;51.914;8.420;2023-04-06T03:51:38;4.53;;;4.13;;
15708;SDS011;7954;51.914;8.420;2023-04-06T03:54:06;4.63;;;4.10;;
15708;SDS011;7954;51.914;8.420;2023-04-06T03:56:34;4.27;;;3.70;;
15708;SDS011;7954;51.914;8.420;2023-04-06T03:59:02;4.20;;;3.80;;
15708;SDS011;7954;51.914;8.420;2023-04-06T04:01:31;4.93;;;3.90;;
15708;SDS011;7954;51.914;8.420;2023-04-06T04:03:59;4.60;;;4.10;;
15708;SDS011;7954;51.914;8.420;2023-04-06T04:06:28;4.40;;;4.00;;
15708;SDS011;7954;51.914;8.420;2023-04-06T04:08:56;4.83;;;4.37;;
15708;SDS011;7954;51.914;8.420;2023-04-06T04:11:24;4.57;;;3.87;;
15708;SDS011;7954;51.914;8.420;2023-04-06T04:13:52;4.73;;;4.27;;
15708;SDS011;7954;51.914;8.420;2023-04-06T04:16:20;4.60;;;4.20;;
15708;SDS011;7954;51.914;8.420;2023-04-06T04:19:49;4.60;;;4.17;;
15708;SDS011;7954;51.914;8.420;2023-04-06T04:22:18;4.50;;;4.10;;
15708;SDS011;7954;51.914;8.420;2023-04-06T04:24:45;4.90;;;4.50;;
15708;SDS011;7954;51.914;8.420;2023-04-06T04:27:13;5.90;;;4.43;;
15708;SDS011;7954;51.914;8.420;2023-04-06T04:29:41;5.23;;;4.20;;
15708;SDS011;7954;51.914;8.420;2023-04-06T04:32:10;7.33;;;4.27;;
15708;SDS011;7954;51.914;8.420;2023-04-06T04:34:38;4.53;;;4.13;;
15708;SDS011;7954;51.914;8.420;2023-04-06T04:37:08;4.40;;;3.70;;
15708;SDS011;7954;51.914;8.420;2023-04-06T04:39:36;4.97;;;4.13;;
15708;SDS011;7954;51.914;8.420;2023-04-06T04:42:04;4.57;;;4.13;;
15708;SDS011;7954;51.914;8.420;2023-04-06T04:44:32;4.73;;;4.33;;
15708;SDS011;7954;51.914;8.420;2023-04-06T04:49:07;5.00;;;4.57;;
15708;SDS011;7954;51.914;8.420;2023-04-06T04:51:36;4.80;;;4.37;;
15708;SDS011;7954;51.914;8.420;2023-04-06T04:54:03;6.73;;;5.13;;
15708;SDS011;7954;51.914;8.420;2023-04-06T04:56:31;5.90;;;5.00;;
15708;SDS011;7954;51.914;8.420;2023-04-06T04:59:00;5.70;;;5.07;;
15708;SDS011;7954;51.914;8.420;2023-04-06T05:01:27;5.40;;;4.70;;
15708;SDS011;7954;51.914;8.420;2023-04-06T05:04:10;6.67;;;5.53;;
15708;SDS011;7954;51.914;8.420;2023-04-06T05:09:11;5.73;;;5.13;;
15708;SDS011;7954;51.914;8.420;2023-04-06T05:11:39;5.93;;;4.97;;
15708;SDS011;7954;51.914;8.420;2023-04-06T05:14:06;5.13;;;4.57;;
15708;SDS011;7954;51.914;8.420;2023-04-06T05:16:36;5.40;;;4.90;;
15708;SDS011;7954;51.914;8.420;2023-04-06T05:19:04;4.97;;;4.47;;
15708;SDS011;7954;51.914;8.420;2023-04-06T05:21:33;6.13;;;4.73;;
15708;SDS011;7954;51.914;8.420;2023-04-06T05:24:01;5.03;;;4.53;;
15708;SDS011;7954;51.914;8.420;2023-04-06T05:26:31;5.27;;;4.77;;
15708;SDS011;7954;51.914;8.420;2023-04-06T05:29:25;5.03;;;4.53;;
15708;SDS011;7954;51.914;8.420;2023-04-06T05:31:54;5.73;;;4.83;;
15708;SDS011;7954;51.914;8.420;2023-04-06T05:34:22;6.07;;;4.60;;
15708;SDS011;7954;51.914;8.420;2023-04-06T05:36:50;7.57;;;5.00;;
15708;SDS011;7954;51.914;8.420;2023-04-06T05:39:18;7.50;;;5.37;;
15708;SDS011;7954;51.914;8.420;2023-04-06T05:41:46;8.17;;;5.50;;
15708;SDS011;7954;51.914;8.420;2023-04-06T05:44:14;7.20;;;4.63;;
15708;SDS011;7954;51.914;8.420;2023-04-06T05:46:44;6.43;;;5.10;;
15708;SDS011;7954;51.914;8.420;2023-04-06T05:49:12;5.07;;;4.60;;
15708;SDS011;7954;51.914;8.420;2023-04-06T05:51:40;7.17;;;4.77;;
15708;SDS011;7954;51.914;8.420;2023-04-06T05:54:07;5.67;;;4.83;;
15708;SDS011;7954;51.914;8.420;2023-04-06T05:59:12;5.10;;;4.60;;
15708;SDS011;7954;51.914;8.420;2023-04-06T06:01:41;5.43;;;4.90;;
15708;SDS011;7954;51.914;8.420;2023-04-06T06:04:08;8.10;;;5.13;;
15708;SDS011;7954;51.914;8.420;2023-04-06T06:06:36;5.33;;;4.43;;
15708;SDS011;7954;51.914;8.420;2023-04-06T06:09:06;5.00;;;4.40;;
15708;SDS011;7954;51.914;8.420;2023-04-06T06:11:34;7.33;;;5.10;;
15708;SDS011;7954;51.914;8.420;2023-04-06T06:14:03;5.63;;;5.03;;
15708;SDS011;7954;51.914;8.420;2023-04-06T06:16:33;4.87;;;4.17;;
15708;SDS011;7954;51.914;8.420;2023-04-06T06:19:01;4.97;;;4.20;;
15708;SDS011;7954;51.914;8.420;2023-04-06T06:21:29;4.63;;;4.23;;
15708;SDS011;7954;51.914;8.420;2023-04-06T06:23:57;5.00;;;4.50;;
15708;SDS011;7954;51.914;8.420;2023-04-06T06:26:25;4.80;;;4.40;;
15708;SDS011;7954;51.914;8.420;2023-04-06T06:29:07;4.90;;;4.40;;
15708;SDS011;7954;51.914;8.420;2023-04-06T06:31:36;5.60;;;4.80;;
15708;SDS011;7954;51.914;8.420;2023-04-06T06:34:04;4.93;;;4.47;;
15708;SDS011;7954;51.914;8.420;2023-04-06T06:36:32;6.13;;;4.70;;
15708;SDS011;7954;51.914;8.420;2023-04-06T06:39:01;6.13;;;4.60;;
15708;SDS011;7954;51.914;8.420;2023-04-06T06:41:29;5.77;;;4.53;;
15708;SDS011;7954;51.914;8.420;2023-04-06T06:43:57;6.00;;;4.40;;
15708;SDS011;7954;51.914;8.420;2023-04-06T06:48:54;4.97;;;4.57;;
15708;SDS011;7954;51.914;8.420;2023-04-06T06:51:22;5.07;;;4.57;;
15708;SDS011;7954;51.914;8.420;2023-04-06T06:53:50;6.03;;;4.50;;
15708;SDS011;7954;51.914;8.420;2023-04-06T06:56:18;5.20;;;4.50;;
15708;SDS011;7954;51.914;8.420;2023-04-06T06:58:48;5.10;;;4.33;;
15708;SDS011;7954;51.914;8.420;2023-04-06T07:01:16;5.10;;;4.43;;
15708;SDS011;7954;51.914;8.420;2023-04-06T07:03:44;5.03;;;4.13;;
15708;SDS011;7954;51.914;8.420;2023-04-06T07:06:15;5.30;;;4.80;;
15708;SDS011;7954;51.914;8.420;2023-04-06T07:08:44;4.80;;;4.40;;
15708;SDS011;7954;51.914;8.420;2023-04-06T07:11:12;5.80;;;4.70;;
15708;SDS011;7954;51.914;8.420;2023-04-06T07:13:40;4.90;;;4.47;;
15708;SDS011;7954;51.914;8.420;2023-04-06T07:16:08;5.30;;;4.80;;
15708;SDS011;7954;51.914;8.420;2023-04-06T07:18:35;5.17;;;4.67;;
15708;SDS011;7954;51.914;8.420;2023-04-06T07:21:05;4.73;;;4.33;;
15708;SDS011;7954;51.914;8.420;2023-04-06T07:23:34;5.07;;;4.43;;
15708;SDS011;7954;51.914;8.420;2023-04-06T07:26:02;5.37;;;4.70;;
15708;SDS011;7954;51.914;8.420;2023-04-06T07:29:46;4.90;;;4.40;;
15708;SDS011;7954;51.914;8.420;2023-04-06T07:32:15;4.67;;;4.23;;
15708;SDS011;7954;51.914;8.420;2023-04-06T07:34:43;5.93;;;3.87;;
15708;SDS011;7954;51.914;8.420;2023-04-06T07:37:13;4.20;;;3.80;;
15708;SDS011;7954;51.914;8.420;2023-04-06T07:39:41;4.67;;;4.20;;
15708;SDS011;7954;51.914;8.420;2023-04-06T07:42:09;4.83;;;4.07;;
15708;SDS011;7954;51.914;8.420;2023-04-06T07:44:37;4.47;;;4.00;;
15708;SDS011;7954;51.914;8.420;2023-04-06T07:48:43;4.93;;;4.53;;
15708;SDS011;7954;51.914;8.420;2023-04-06T07:51:12;4.70;;;3.90;;
15708;SDS011;7954;51.914;8.420;2023-04-06T07:53:41;4.73;;;4.20;;
15708;SDS011;7954;51.914;8.420;2023-04-06T07:56:09;5.87;;;4.63;;
15708;SDS011;7954;51.914;8.420;2023-04-06T07:58:38;4.93;;;3.83;;
15708;SDS011;7954;51.914;8.420;2023-04-06T08:01:06;4.60;;;4.20;;
15708;SDS011;7954;51.914;8.420;2023-04-06T08:03:34;4.67;;;4.03;;
15708;SDS011;7954;51.914;8.420;2023-04-06T08:06:05;7.23;;;4.50;;
15708;SDS011;7954;51.914;8.420;2023-04-06T08:08:33;4.60;;;4.13;;
15708;SDS011;7954;51.914;8.420;2023-04-06T08:11:01;4.53;;;3.97;;
15708;SDS011;7954;51.914;8.420;2023-04-06T08:13:29;5.87;;;4.17;;
15708;SDS011;7954;51.914;8.420;2023-04-06T08:15:58;4.50;;;4.10;;
15708;SDS011;7954;51.914;8.420;2023-04-06T08:18:26;5.20;;;4.47;;
15708;SDS011;7954;51.914;8.420;2023-04-06T08:20:56;5.80;;;4.00;;
15708;SDS011;7954;51.914;8.420;2023-04-06T08:23:26;7.03;;;4.80;;
15708;SDS011;7954;51.914;8.420;2023-04-06T08:25:54;5.40;;;4.20;;
15708;SDS011;7954;51.914;8.420;2023-04-06T08:28:22;5.30;;;4.27;;
15708;SDS011;7954;51.914;8.420;2023-04-06T08:30:50;4.90;;;4.50;;
15708;SDS011;7954;51.914;8.420;2023-04-06T08:33:18;6.07;;;4.60;;
15708;SDS011;7954;51.914;8.420;2023-04-06T08:35:46;5.50;;;5.00;;
15708;SDS011;7954;51.914;8.420;2023-04-06T08:38:14;6.00;;;4.50;;
15708;SDS011;7954;51.914;8.420;2023-04-06T08:40:43;7.00;;;4.53;;
15708;SDS011;7954;51.914;8.420;2023-04-06T08:43:13;6.37;;;4.97;;
15708;SDS011;7954;51.914;8.420;2023-04-06T08:45:42;5.17;;;4.67;;
15708;SDS011;7954;51.914;8.420;2023-04-06T08:48:11;5.17;;;4.67;;
15708;SDS011;7954;51.914;8.420;2023-04-06T08:50:39;7.17;;;4.97;;
15708;SDS011;7954;51.914;8.420;2023-04-06T08:53:07;5.03;;;4.50;;
15708;SDS011;7954;51.914;8.420;2023-04-06T08:55:36;5.20;;;4.67;;
15708;SDS011;7954;51.914;8.420;2023-04-06T08:58:07;5.77;;;4.63;;
15708;SDS011;7954;51.914;8.420;2023-04-06T09:00:36;5.03;;;4.53;;
15708;SDS011;7954;51.914;8.420;2023-04-06T09:03:06;7.03;;;5.07;;
15708;SDS011;7954;51.914;8.420;2023-04-06T09:05:36;5.43;;;4.70;;
15708;SDS011;7954;51.914;8.420;2023-04-06T09:08:05;7.33;;;4.80;;
15708;SDS011;7954;51.914;8.420;2023-04-06T09:10:32;7.10;;;5.83;;
15708;SDS011;7954;51.914;8.420;2023-04-06T09:13:05;5.83;;;4.53;;
15708;SDS011;7954;51.914;8.420;2023-04-06T09:15:35;8.80;;;5.40;;
15708;SDS011;7954;51.914;8.420;2023-04-06T09:18:03;5.90;;;5.13;;
15708;SDS011;7954;51.914;8.420;2023-04-06T09:20:33;6.97;;;4.63;;
15708;SDS011;7954;51.914;8.420;2023-04-06T09:23:01;5.50;;;4.70;;
15708;SDS011;7954;51.914;8.420;2023-04-06T09:25:29;7.00;;;5.60;;
15708;SDS011;7954;51.914;8.420;2023-04-06T09:27:59;6.00;;;5.40;;
15708;SDS011;7954;51.914;8.420;2023-04-06T09:30:30;7.67;;;5.83;;
15708;SDS011;7954;51.914;8.420;2023-04-06T09:32:58;6.97;;;5.47;;
15708;SDS011;7954;51.914;8.420;2023-04-06T09:35:26;6.23;;;5.60;;
15708;SDS011;7954;51.914;8.420;2023-04-06T09:37:56;6.80;;;5.30;;
15708;SDS011;7954;51.914;8.420;2023-04-06T09:40:25;5.83;;;5.20;;
15708;SDS011;7954;51.914;8.420;2023-04-06T09:42:55;5.50;;;4.97;;
15708;SDS011;7954;51.914;8.420;2023-04-06T09:45:26;5.30;;;4.80;;
15708;SDS011;7954;51.914;8.420;2023-04-06T09:47:58;7.40;;;5.43;;
15708;SDS011;7954;51.914;8.420;2023-04-06T09:50:27;8.27;;;5.10;;
15708;SDS011;7954;51.914;8.420;2023-04-06T09:52:55;7.07;;;5.60;;
15708;SDS011;7954;51.914;8.420;2023-04-06T09:55:28;7.83;;;5.93;;
15708;SDS011;7954;51.914;8.420;2023-04-06T09:58:02;7.70;;;5.90;;
15708;SDS011;7954;51.914;8.420;2023-04-06T10:00:34;7.37;;;6.00;;
15708;SDS011;7954;51.914;8.420;2023-04-06T10:03:11;6.80;;;5.90;;
15708;SDS011;7954;51.914;8.420;2023-04-06T10:05:50;7.00;;;6.30;;
15708;SDS011;7954;51.914;8.420;2023-04-06T10:11:23;6.73;;;6.13;;
15708;SDS011;7954;51.914;8.420;2023-04-06T10:13:52;7.83;;;6.70;;
15708;SDS011;7954;51.914;8.420;2023-04-06T10:17:21;6.60;;;5.90;;
15708;SDS011;7954;51.914;8.420;2023-04-06T10:19:52;9.97;;;6.77;;
15708;SDS011;7954;51.914;8.420;2023-04-06T10:22:24;8.13;;;7.03;;
15708;SDS011;7954;51.914;8.420;2023-04-06T10:24:56;7.63;;;6.67;;
15708;SDS011;7954;51.914;8.420;2023-04-06T10:27:28;7.67;;;6.87;;
15708;SDS011;7954;51.914;8.420;2023-04-06T10:30:00;7.50;;;6.70;;
15708;SDS011;7954;51.914;8.420;2023-04-06T10:32:35;7.93;;;6.70;;
15708;SDS011;7954;51.914;8.420;2023-04-06T10:35:08;7.70;;;6.90;;
15708;SDS011;7954;51.914;8.420;2023-04-06T10:37:47;7.53;;;6.60;;
15708;SDS011;7954;51.914;8.420;2023-04-06T10:40:19;7.70;;;6.63;;
15708;SDS011;7954;51.914;8.420;2023-04-06T10:42:49;8.23;;;7.17;;
15708;SDS011;7954;51.914;8.420;2023-04-06T10:45:21;7.70;;;6.90;;
15708;SDS011;7954;51.914;8.420;2023-04-06T10:47:52;8.93;;;7.40;;
15708;SDS011;7954;51.914;8.420;2023-04-06T10:50:21;8.53;;;7.23;;
15708;SDS011;7954;51.914;8.420;2023-04-06T10:53:01;8.87;;;7.77;;
15708;SDS011;7954;51.914;8.420;2023-04-06T10:55:29;9.00;;;8.10;;
15708;SDS011;7954;51.914;8.420;2023-04-06T10:57:58;8.33;;;7.50;;
15708;SDS011;7954;51.914;8.420;2023-04-06T11:00:27;7.63;;;6.93;;
15708;SDS011;7954;51.914;8.420;2023-04-06T11:03:16;8.53;;;7.73;;
15708;SDS011;7954;51.914;8.420;2023-04-06T11:05:46;8.80;;;7.90;;
15708;SDS011;7954;51.914;8.420;2023-04-06T11:08:27;8.07;;;7.27;;
15708;SDS011;7954;51.914;8.420;2023-04-06T11:11:03;8.10;;;7.30;;
15708;SDS011;7954;51.914;8.420;2023-04-06T11:13:37;8.97;;;8.07;;
15708;SDS011;7954;51.914;8.420;2023-04-06T11:16:06;9.10;;;8.20;;
15708;SDS011;7954;51.914;8.420;2023-04-06T11:18:36;12.13;;;8.37;;
15708;SDS011;7954;51.914;8.420;2023-04-06T11:21:04;8.33;;;7.40;;
15708;SDS011;7954;51.914;8.420;2023-04-06T11:23:32;9.30;;;8.30;;
15708;SDS011;7954;51.914;8.420;2023-04-06T11:26:00;8.20;;;7.37;;
15708;SDS011;7954;51.914;8.420;2023-04-06T11:28:28;8.70;;;7.50;;
15708;SDS011;7954;51.914;8.420;2023-04-06T11:30:57;9.37;;;7.97;;
15708;SDS011;7954;51.914;8.420;2023-04-06T11:33:27;7.37;;;6.63;;
15708;SDS011;7954;51.914;8.420;2023-04-06T11:35:58;7.63;;;6.93;;
15708;SDS011;7954;51.914;8.420;2023-04-06T11:38:26;9.07;;;7.47;;
15708;SDS011;7954;51.914;8.420;2023-04-06T11:40:54;8.03;;;7.23;;
15708;SDS011;7954;51.914;8.420;2023-04-06T11:43:25;7.00;;;6.40;;
15708;SDS011;7954;51.914;8.420;2023-04-06T11:45:59;7.27;;;6.37;;
15708;SDS011;7954;51.914;8.420;2023-04-06T11:48:29;7.43;;;6.73;;
15708;SDS011;7954;51.914;8.420;2023-04-06T11:50:59;7.67;;;6.97;;
15708;SDS011;7954;51.914;8.420;2023-04-06T11:53:28;8.03;;;6.93;;
15708;SDS011;7954;51.914;8.420;2023-04-06T11:55:56;7.33;;;6.60;;
15708;SDS011;7954;51.914;8.420;2023-04-06T11:58:25;7.80;;;6.47;;
15708;SDS011;7954;51.914;8.420;2023-04-06T12:01:02;7.50;;;6.80;;
15708;SDS011;7954;51.914;8.420;2023-04-06T12:03:31;6.93;;;6.30;;
15708;SDS011;7954;51.914;8.420;2023-04-06T12:06:01;7.37;;;6.67;;
15708;SDS011;7954;51.914;8.420;2023-04-06T12:08:30;7.80;;;6.63;;
15708;SDS011;7954;51.914;8.420;2023-04-06T12:10:57;7.07;;;6.10;;
15708;SDS011;7954;51.914;8.420;2023-04-06T12:13:28;6.80;;;6.20;;
15708;SDS011;7954;51.914;8.420;2023-04-06T12:15:56;6.10;;;5.57;;
15708;SDS011;7954;51.914;8.420;2023-04-06T12:18:25;6.90;;;5.97;;
15708;SDS011;7954;51.914;8.420;2023-04-06T12:20:53;7.50;;;6.70;;
15708;SDS011;7954;51.914;8.420;2023-04-06T12:23:24;8.13;;;7.00;;
15708;SDS011;7954;51.914;8.420;2023-04-06T12:25:52;7.30;;;6.60;;
15708;SDS011;7954;51.914;8.420;2023-04-06T12:28:21;8.20;;;6.57;;
15708;SDS011;7954;51.914;8.420;2023-04-06T12:30:54;7.40;;;6.60;;
15708;SDS011;7954;51.914;8.420;2023-04-06T12:33:22;6.47;;;5.87;;
15708;SDS011;7954;51.914;8.420;2023-04-06T12:35:51;7.53;;;6.80;;
15708;SDS011;7954;51.914;8.420;2023-04-06T12:38:19;8.60;;;7.00;;
15708;SDS011;7954;51.914;8.420;2023-04-06T12:40:49;7.93;;;7.13;;
15708;SDS011;7954;51.914;8.420;2023-04-06T12:43:17;7.17;;;6.47;;
15708;SDS011;7954;51.914;8.420;2023-04-06T12:45:45;7.50;;;6.90;;
15708;SDS011;7954;51.914;8.420;2023-04-06T12:48:13;8.23;;;6.90;;
15708;SDS011;7954;51.914;8.420;2023-04-06T12:50:41;7.47;;;6.77;;
15708;SDS011;7954;51.914;8.420;2023-04-06T12:53:09;6.87;;;6.27;;
15708;SDS011;7954;51.914;8.420;2023-04-06T12:55:37;7.23;;;6.60;;
15708;SDS011;7954;51.914;8.420;2023-04-06T12:58:07;7.60;;;6.90;;
15708;SDS011;7954;51.914;8.420;2023-04-06T13:00:35;8.90;;;6.83;;
15708;SDS011;7954;51.914;8.420;2023-04-06T13:03:03;6.90;;;6.30;;
15708;SDS011;7954;51.914;8.420;2023-04-06T13:05:31;7.53;;;6.77;;
15708;SDS011;7954;51.914;8.420;2023-04-06T13:07:59;8.20;;;7.40;;
15708;SDS011;7954;51.914;8.420;2023-04-06T13:10:27;7.23;;;6.63;;
15708;SDS011;7954;51.914;8.420;2023-04-06T13:12:54;7.63;;;6.97;;
15708;SDS011;7954;51.914;8.420;2023-04-06T13:15:24;7.50;;;6.90;;
15708;SDS011;7954;51.914;8.420;2023-04-06T13:17:51;8.20;;;7.40;;
15708;SDS011;7954;51.914;8.420;2023-04-06T13:20:21;7.60;;;6.90;;
15708;SDS011;7954;51.914;8.420;2023-04-06T13:22:51;8.27;;;7.47;;
15708;SDS011;7954;51.914;8.420;2023-04-06T13:25:18;7.80;;;7.10;;
15708;SDS011;7954;51.914;8.420;2023-04-06T13:27:46;8.63;;;7.93;;
15708;SDS011;7954;51.914;8.420;2023-04-06T13:30:15;8.63;;;7.83;;
15708;SDS011;7954;51.914;8.420;2023-04-06T13:32:45;8.63;;;7.90;;
15708;SDS011;7954;51.914;8.420;2023-04-06T13:35:13;9.60;;;8.80;;
15708;SDS011;7954;51.914;8.420;2023-04-06T13:37:43;9.13;;;8.33;;
15708;SDS011;7954;51.914;8.420;2023-04-06T13:40:11;7.87;;;7.20;;
15708;SDS011;7954;51.914;8.420;2023-04-06T13:42:41;8.97;;;8.13;;
15708;SDS011;7954;51.914;8.420;2023-04-06T13:45:11;10.30;;;9.40;;
15708;SDS011;7954;51.914;8.420;2023-04-06T13:47:40;8.80;;;7.93;;
15708;SDS011;7954;51.914;8.420;2023-04-06T13:50:10;9.30;;;8.50;;
15708;SDS011;7954;51.914;8.420;2023-04-06T13:52:38;9.07;;;8.27;;
15708;SDS011;7954;51.914;8.420;2023-04-06T13:55:07;10.13;;;8.87;;
15708;SDS011;7954;51.914;8.420;2023-04-06T13:57:35;10.47;;;9.50;;
15708;SDS011;7954;51.914;8.420;2023-04-06T14:00:04;10.07;;;9.17;;
15708;SDS011;7954;51.914;8.420;2023-04-06T14:02:34;10.00;;;9.10;;
15708;SDS011;7954;51.914;8.420;2023-04-06T14:05:03;10.30;;;9.30;;
15708;SDS011;7954;51.914;8.420;2023-04-06T14:07:34;9.73;;;8.90;;
15708;SDS011;7954;51.914;8.420;2023-04-06T14:10:03;11.37;;;9.47;;
15708;SDS011;7954;51.914;8.420;2023-04-06T14:12:31;10.23;;;9.07;;
15708;SDS011;7954;51.914;8.420;2023-04-06T14:14:59;9.80;;;9.00;;
15708;SDS011;7954;51.914;8.420;2023-04-06T14:17:26;9.97;;;9.07;;
15708;SDS011;7954;51.914;8.420;2023-04-06T14:19:54;9.97;;;9.07;;
15708;SDS011;7954;51.914;8.420;2023-04-06T14:22:22;9.87;;;9.07;;
15708;SDS011;7954;51.914;8.420;2023-04-06T14:24:51;10.23;;;9.23;;
15708;SDS011;7954;51.914;8.420;2023-04-06T14:27:19;10.20;;;9.23;;
15708;SDS011;7954;51.914;8.420;2023-04-06T14:29:47;10.10;;;9.07;;
15708;SDS011;7954;51.914;8.420;2023-04-06T14:32:15;9.98;;;9.07;;
15708;SDS011;7954;51.914;8.420;2023-04-06T14:34:43;10.57;;;9.67;;
15708;SDS011;7954;51.914;8.420;2023-04-06T14:37:11;11.00;;;9.70;;
15708;SDS011;7954;51.914;8.420;2023-04-06T14:39:38;10.50;;;9.53;;
15708;SDS011;7954;51.914;8.420;2023-04-06T14:42:08;11.03;;;10.03;;
15708;SDS011;7954;51.914;8.420;2023-04-06T14:44:37;11.37;;;10.37;;
15708;SDS011;7954;51.914;8.420;2023-04-06T14:47:09;11.23;;;10.17;;
15708;SDS011;7954;51.914;8.420;2023-04-06T14:49:37;11.50;;;10.40;;
15708;SDS011;7954;51.914;8.420;2023-04-06T14:52:05;11.03;;;10.03;;
15708;SDS011;7954;51.914;8.420;2023-04-06T14:54:32;11.50;;;10.33;;
15708;SDS011;7954;51.914;8.420;2023-04-06T14:57:00;12.47;;;9.40;;
15708;SDS011;7954;51.914;8.420;2023-04-06T14:59:30;11.17;;;10.10;;
15708;SDS011;7954;51.914;8.420;2023-04-06T15:02:04;10.50;;;9.50;;
15708;SDS011;7954;51.914;8.420;2023-04-06T15:04:33;10.67;;;9.67;;
15708;SDS011;7954;51.914;8.420;2023-04-06T15:07:01;10.57;;;9.63;;
15708;SDS011;7954;51.914;8.420;2023-04-06T15:09:29;10.20;;;9.23;;
15708;SDS011;7954;51.914;8.420;2023-04-06T15:11:57;10.43;;;9.40;;
15708;SDS011;7954;51.914;8.420;2023-04-06T15:14:26;9.87;;;9.07;;
15708;SDS011;7954;51.914;8.420;2023-04-06T15:16:55;9.97;;;8.93;;
15708;SDS011;7954;51.914;8.420;2023-04-06T15:19:23;9.53;;;8.63;;
15708;SDS011;7954;51.914;8.420;2023-04-06T15:21:51;9.63;;;8.73;;
15708;SDS011;7954;51.914;8.420;2023-04-06T15:24:18;9.47;;;8.57;;
15708;SDS011;7954;51.914;8.420;2023-04-06T15:26:47;10.43;;;9.43;;
15708;SDS011;7954;51.914;8.420;2023-04-06T15:29:15;10.20;;;9.30;;
15708;SDS011;7954;51.914;8.420;2023-04-06T15:31:43;9.03;;;7.73;;
15708;SDS011;7954;51.914;8.420;2023-04-06T15:34:12;9.17;;;8.17;;
15708;SDS011;7954;51.914;8.420;2023-04-06T15:36:40;9.20;;;8.30;;
15708;SDS011;7954;51.914;8.420;2023-04-06T15:39:09;10.17;;;9.17;;